^^
Station Historical Data
 
Daily Summary for September 02, 2015 Units:  Metric    English   Both
« Previous Day
Next Day »
Daily Weekly Monthly Yearly Custom
  Current: High: Low: Average:
Temperature: 16.9 °C 19.7 °C 13.8 °C 16.6 °C
Dew Point: 12.8 °C 14.2 °C 12.3 °C 13.3 °C
Humidity: 77% 95% 64% 82%
Wind Speed: 0.0km/h 3.5km/h 0.0km/h 0.4km/h
Wind Gust: 0.0km/h 12.9km/h - -
WindCalm - - ESE
Pressure: 1014.1 hPa 1016.8 hPa 1013.8 hPa -
Precipitation: 0.0 mm      
Historical Graphs
 
 
Tabular Data for September 02, 2015
Time Temperature Dew Point Pressure Wind Wind Speed Wind Gust Humidity Rainfall Rate (Hourly) solar Conditions
00:05 15.1 °C 14.0 °C 1016.1 hPa Calm   1.6 km/h 93% 0.0 mm 0 W/m2
00:10 15.1 °C 14.0 °C 1016.1 hPa Calm     93% 0.0 mm 0 W/m2
00:15 15.1 °C 14.0 °C 1016.1 hPa Calm   1.6 km/h 93% 0.0 mm 0 W/m2
00:20 15.1 °C 14.0 °C 1016.1 hPa Calm     93% 0.0 mm 0 W/m2
00:30 15.1 °C 14.0 °C 1016.1 hPa Calm     93% 0.0 mm 0 W/m2
00:35 15.1 °C 14.0 °C 1016.5 hPa Calm     93% 0.0 mm 0 W/m2
00:40 15.1 °C 14.0 °C 1016.5 hPa Calm     93% 0.0 mm 0 W/m2
00:45 15.1 °C 14.0 °C 1016.5 hPa Calm     93% 0.0 mm 0 W/m2
00:50 15.1 °C 14.0 °C 1016.5 hPa Calm     93% 0.0 mm 0 W/m2
00:55 15.1 °C 14.0 °C 1016.5 hPa Calm     93% 0.0 mm 0 W/m2
01:00 15.1 °C 14.0 °C 1016.5 hPa Calm     93% 0.0 mm 0 W/m2
01:05 15.1 °C 14.0 °C 1016.5 hPa Calm     93% 0.0 mm 0 W/m2
01:10 15.1 °C 14.0 °C 1016.5 hPa Calm     93% 0.0 mm 0 W/m2
01:15 15.1 °C 14.0 °C 1016.5 hPa Calm     93% 0.0 mm 0 W/m2
01:20 15.1 °C 14.0 °C 1016.5 hPa Calm     93% 0.0 mm 0 W/m2
01:30 15.1 °C 14.0 °C 1016.5 hPa Calm     93% 0.0 mm 0 W/m2
01:35 15.1 °C 14.0 °C 1016.5 hPa Calm     93% 0.0 mm 0 W/m2
01:40 15.0 °C 13.9 °C 1016.5 hPa Calm     93% 0.0 mm 0 W/m2
01:45 15.0 °C 13.9 °C 1016.5 hPa Calm     93% 0.0 mm 0 W/m2
01:50 14.9 °C 13.8 °C 1016.5 hPa Calm   1.6 km/h 93% 0.0 mm 0 W/m2
01:55 14.9 °C 13.8 °C 1016.5 hPa Calm     93% 0.0 mm 0 W/m2
02:00 14.9 °C 13.8 °C 1016.5 hPa Calm     93% 0.0 mm 0 W/m2
02:05 14.8 °C 13.7 °C 1016.5 hPa WNW 0.2 km/h 4.8 km/h 93% 0.0 mm 0 W/m2
02:10 14.8 °C 13.7 °C 1016.8 hPa Calm   1.6 km/h 93% 0.0 mm 0 W/m2
02:15 14.7 °C 13.6 °C 1016.5 hPa Calm     93% 0.0 mm 0 W/m2
02:20 14.7 °C 13.6 °C 1016.8 hPa WNW 0.2 km/h 1.6 km/h 93% 0.0 mm 0 W/m2
02:25 14.7 °C 13.6 °C 1016.8 hPa Calm     93% 0.0 mm 0 W/m2
02:30 14.7 °C 13.6 °C 1016.8 hPa Calm     93% 0.0 mm 0 W/m2
02:35 14.6 °C 13.5 °C 1016.8 hPa Calm   1.6 km/h 93% 0.0 mm 0 W/m2
02:40 14.6 °C 13.5 °C 1016.8 hPa Calm     93% 0.0 mm 0 W/m2
02:45 14.6 °C 13.5 °C 1016.8 hPa Calm   1.6 km/h 93% 0.0 mm 0 W/m2
02:55 14.4 °C 13.3 °C 1016.5 hPa Calm   1.6 km/h 93% 0.0 mm 0 W/m2
03:00 14.4 °C 13.3 °C 1016.5 hPa Calm   1.6 km/h 93% 0.0 mm 0 W/m2
03:05 14.4 °C 13.3 °C 1016.5 hPa Calm     93% 0.0 mm 0 W/m2
03:10 14.4 °C 13.3 °C 1016.5 hPa WNW 0.2 km/h 4.8 km/h 93% 0.0 mm 0 W/m2
03:15 14.4 °C 13.3 °C 1016.5 hPa Calm   1.6 km/h 93% 0.0 mm 0 W/m2
03:20 14.3 °C 13.2 °C 1016.5 hPa WNW 0.2 km/h 3.2 km/h 93% 0.0 mm 0 W/m2
03:25 14.3 °C 13.2 °C 1016.5 hPa WNW 0.2 km/h 3.2 km/h 93% 0.0 mm 0 W/m2
03:30 14.3 °C 13.2 °C 1016.5 hPa Calm   1.6 km/h 93% 0.0 mm 0 W/m2
03:35 14.3 °C 13.2 °C 1016.5 hPa Calm     93% 0.0 mm 0 W/m2
03:40 14.3 °C 13.2 °C 1016.5 hPa Calm   1.6 km/h 93% 0.0 mm 0 W/m2
03:45 14.2 °C 13.1 °C 1016.5 hPa Calm   1.6 km/h 93% 0.0 mm 0 W/m2
03:50 14.2 °C 13.1 °C 1016.5 hPa Calm     93% 0.0 mm 0 W/m2
03:55 14.2 °C 13.1 °C 1016.5 hPa Calm     93% 0.0 mm 0 W/m2
04:00 14.2 °C 13.1 °C 1016.5 hPa Calm     93% 0.0 mm 0 W/m2
04:05 14.1 °C 13.0 °C 1016.5 hPa Calm     93% 0.0 mm 0 W/m2
04:10 14.1 °C 13.0 °C 1016.5 hPa Calm     93% 0.0 mm 0 W/m2
04:15 14.1 °C 13.0 °C 1016.5 hPa Calm     93% 0.0 mm 0 W/m2
04:20 14.1 °C 13.0 °C 1016.5 hPa Calm     93% 0.0 mm 0 W/m2
04:25 14.1 °C 13.0 °C 1016.5 hPa Calm     93% 0.0 mm 0 W/m2
04:30 14.1 °C 13.0 °C 1016.5 hPa Calm     93% 0.0 mm 0 W/m2
04:35 14.1 °C 13.0 °C 1016.5 hPa Calm     93% 0.0 mm 0 W/m2
04:40 14.0 °C 12.9 °C 1016.5 hPa Calm     93% 0.0 mm 0 W/m2
04:45 14.0 °C 12.9 °C 1016.5 hPa Calm     93% 0.0 mm 0 W/m2
04:50 14.0 °C 12.9 °C 1016.1 hPa Calm     93% 0.0 mm 0 W/m2
04:55 13.9 °C 12.8 °C 1016.1 hPa Calm     93% 0.0 mm 0 W/m2
05:00 14.0 °C 12.9 °C 1016.1 hPa Calm     93% 0.0 mm 0 W/m2
05:05 13.9 °C 12.8 °C 1016.1 hPa Calm     93% 0.0 mm 0 W/m2
05:10 13.9 °C 12.8 °C 1016.1 hPa Calm     93% 0.0 mm 0 W/m2
05:15 13.9 °C 12.8 °C 1016.1 hPa Calm     93% 0.0 mm 0 W/m2
05:20 13.9 °C 12.8 °C 1016.1 hPa Calm     93% 0.0 mm 0 W/m2
05:25 13.9 °C 12.8 °C 1016.1 hPa Calm     93% 0.0 mm 0 W/m2
05:30 13.9 °C 12.8 °C 1015.8 hPa Calm     93% 0.0 mm 0 W/m2
05:35 13.9 °C 12.8 °C 1015.8 hPa Calm     93% 0.0 mm 0 W/m2
05:40 13.8 °C 12.7 °C 1015.8 hPa Calm     93% 0.0 mm 0 W/m2
05:45 13.8 °C 12.7 °C 1015.8 hPa Calm     93% 0.0 mm 0 W/m2
05:50 13.8 °C 12.7 °C 1015.8 hPa Calm     93% 0.0 mm 0 W/m2
05:55 13.8 °C 12.7 °C 1015.8 hPa Calm     93% 0.0 mm 0 W/m2
06:00 13.8 °C 12.7 °C 1015.8 hPa Calm     93% 0.0 mm 0 W/m2
06:05 13.8 °C 12.7 °C 1015.8 hPa Calm     93% 0.0 mm 0 W/m2
06:10 13.8 °C 12.7 °C 1015.8 hPa Calm     93% 0.0 mm 0 W/m2
06:15 13.8 °C 12.8 °C 1015.8 hPa Calm     94% 0.0 mm 0 W/m2
06:25 13.8 °C 12.8 °C 1015.8 hPa Calm     94% 0.0 mm 0 W/m2
06:30 13.8 °C 12.8 °C 1015.8 hPa Calm     94% 0.0 mm 0 W/m2
06:35 13.8 °C 12.8 °C 1015.8 hPa Calm     94% 0.0 mm 0 W/m2
06:40 13.8 °C 12.8 °C 1015.8 hPa Calm     94% 0.0 mm 0 W/m2
06:45 13.8 °C 12.8 °C 1015.8 hPa Calm     94% 0.0 mm 0 W/m2
06:50 13.9 °C 12.9 °C 1015.8 hPa Calm     94% 0.0 mm 0 W/m2
06:55 13.9 °C 12.9 °C 1015.8 hPa Calm     94% 0.0 mm 0 W/m2
07:00 13.9 °C 12.9 °C 1015.8 hPa Calm     94% 0.0 mm 5 W/m2
07:05 13.9 °C 12.9 °C 1015.8 hPa Calm     94% 0.0 mm 9 W/m2
07:10 13.9 °C 12.9 °C 1015.8 hPa Calm     94% 0.0 mm 14 W/m2
07:15 14.0 °C 13.1 °C 1015.8 hPa Calm     94% 0.0 mm 18 W/m2
07:20 14.0 °C 13.1 °C 1015.8 hPa Calm     94% 0.0 mm 25 W/m2
07:25 14.0 °C 13.1 °C 1015.8 hPa Calm     94% 0.0 mm 25 W/m2
07:30 14.1 °C 13.2 °C 1015.8 hPa Calm     94% 0.0 mm 32 W/m2
07:35 14.1 °C 13.2 °C 1015.8 hPa Calm     94% 0.0 mm 46 W/m2
07:40 14.1 °C 13.2 °C 1015.8 hPa Calm     94% 0.0 mm 46 W/m2
07:45 14.2 °C 13.4 °C 1015.8 hPa Calm     95% 0.0 mm 44 W/m2
07:50 14.2 °C 13.4 °C 1015.8 hPa Calm     95% 0.0 mm 56 W/m2
07:55 14.2 °C 13.4 °C 1015.8 hPa Calm     95% 0.0 mm 65 W/m2
08:00 14.3 °C 13.5 °C 1015.8 hPa Calm     95% 0.0 mm 63 W/m2
08:05 14.4 °C 13.6 °C 1015.8 hPa Calm     95% 0.0 mm 54 W/m2
08:10 14.4 °C 13.6 °C 1015.8 hPa Calm     95% 0.0 mm 62 W/m2
08:15 14.5 °C 13.7 °C 1015.8 hPa Calm     95% 0.0 mm 77 W/m2
08:20 14.6 °C 13.8 °C 1015.8 hPa Calm     95% 0.0 mm 102 W/m2
08:25 14.6 °C 13.8 °C 1015.8 hPa Calm     95% 0.0 mm 206 W/m2
08:30 14.7 °C 13.9 °C 1015.8 hPa Calm     95% 0.0 mm 121 W/m2
08:35 14.8 °C 14.0 °C 1015.8 hPa Calm     95% 0.0 mm 141 W/m2
08:40 14.8 °C 13.8 °C 1015.8 hPa Calm     94% 0.0 mm 156 W/m2
08:45 14.9 °C 13.9 °C 1015.8 hPa Calm     94% 0.0 mm 169 W/m2
08:50 14.9 °C 13.9 °C 1015.8 hPa NNW 1.8 km/h 8.0 km/h 94% 0.0 mm 153 W/m2
09:00 15.1 °C 14.0 °C 1015.8 hPa NE 0.2 km/h 3.2 km/h 93% 0.0 mm 139 W/m2
09:05 15.1 °C 14.0 °C 1015.8 hPa NE 0.2 km/h 3.2 km/h 93% 0.0 mm 139 W/m2
09:10 15.2 °C 14.1 °C 1015.8 hPa Calm     93% 0.0 mm 153 W/m2
09:15 15.3 °C 13.8 °C 1015.8 hPa NE 0.3 km/h 4.8 km/h 91% 0.0 mm 156 W/m2
09:20 15.4 °C 13.8 °C 1015.8 hPa ENE 1.0 km/h 11.3 km/h 90% 0.0 mm 179 W/m2
09:25 15.7 °C 13.7 °C 1015.5 hPa East 0.6 km/h 4.8 km/h 88% 0.0 mm 367 W/m2
09:30 16.2 °C 13.8 °C 1015.5 hPa East 0.2 km/h 1.6 km/h 86% 0.0 mm 494 W/m2
09:35 16.7 °C 14.0 °C 1015.5 hPa East 1.8 km/h 8.0 km/h 84% 0.0 mm 322 W/m2
09:40 16.8 °C 14.1 °C 1015.5 hPa NNE 1.3 km/h 9.7 km/h 84% 0.0 mm 313 W/m2
09:45 16.8 °C 13.7 °C 1015.5 hPa ENE 1.4 km/h 9.7 km/h 82% 0.0 mm 302 W/m2
09:50 16.7 °C 13.6 °C 1015.5 hPa ENE 0.5 km/h 4.8 km/h 82% 0.0 mm 329 W/m2
09:55 16.9 °C 13.6 °C 1015.5 hPa East 1.4 km/h 9.7 km/h 81% 0.0 mm 229 W/m2
10:00 16.6 °C 13.1 °C 1015.5 hPa East 0.2 km/h 3.2 km/h 80% 0.0 mm 199 W/m2
10:05 16.5 °C 13.6 °C 1015.5 hPa Calm     83% 0.0 mm 229 W/m2
10:10 16.5 °C 13.2 °C 1015.5 hPa East 1.0 km/h 4.8 km/h 81% 0.0 mm 267 W/m2
10:15 16.5 °C 13.4 °C 1015.5 hPa East 0.2 km/h 1.6 km/h 82% 0.0 mm 276 W/m2
10:20 16.4 °C 13.1 °C 1015.5 hPa East 0.5 km/h 4.8 km/h 81% 0.0 mm 304 W/m2
10:25 16.6 °C 13.5 °C 1015.5 hPa East 1.0 km/h 4.8 km/h 82% 0.0 mm 352 W/m2
10:30 16.6 °C 13.5 °C 1015.5 hPa East 1.0 km/h 4.8 km/h 82% 0.0 mm 352 W/m2
10:35 16.7 °C 13.4 °C 1015.5 hPa East 0.3 km/h 4.8 km/h 81% 0.0 mm 264 W/m2
10:40 16.7 °C 13.4 °C 1015.5 hPa East 0.6 km/h 4.8 km/h 81% 0.0 mm 253 W/m2
10:45 16.8 °C 13.1 °C 1015.5 hPa East 0.2 km/h 3.2 km/h 79% 0.0 mm 244 W/m2
10:50 16.8 °C 13.7 °C 1015.5 hPa East 0.6 km/h 4.8 km/h 82% 0.0 mm 271 W/m2
10:55 16.8 °C 13.5 °C 1015.5 hPa East 0.3 km/h 4.8 km/h 81% 0.0 mm 274 W/m2
11:00 16.9 °C 13.4 °C 1015.5 hPa East 0.2 km/h 3.2 km/h 80% 0.0 mm 262 W/m2
11:05 16.9 °C 13.1 °C 1015.5 hPa East 0.3 km/h 9.7 km/h 78% 0.0 mm 278 W/m2
11:10 17.3 °C 13.8 °C 1015.5 hPa East 0.6 km/h 4.8 km/h 80% 0.0 mm 341 W/m2
11:15 17.5 °C 13.4 °C 1015.5 hPa East 1.0 km/h 8.0 km/h 77% 0.0 mm 390 W/m2
11:20 17.7 °C 14.0 °C 1015.5 hPa East 0.8 km/h 9.7 km/h 79% 0.0 mm 392 W/m2
11:25 18.1 °C 14.2 °C 1015.5 hPa East 2.3 km/h 12.9 km/h 78% 0.0 mm 320 W/m2
11:30 17.9 °C 13.4 °C 1015.5 hPa East 1.0 km/h 8.0 km/h 75% 0.0 mm 338 W/m2
11:35 17.6 °C 13.3 °C 1015.5 hPa East 1.1 km/h 9.7 km/h 76% 0.0 mm 378 W/m2
11:40 17.7 °C 13.6 °C 1015.5 hPa East 0.2 km/h 3.2 km/h 77% 0.0 mm 401 W/m2
11:45 17.9 °C 13.6 °C 1015.5 hPa North 0.6 km/h 8.0 km/h 76% 0.0 mm 329 W/m2
11:50 17.8 °C 13.5 °C 1015.5 hPa NNW 0.5 km/h 6.4 km/h 76% 0.0 mm 422 W/m2
11:55 17.9 °C 13.4 °C 1015.5 hPa ENE 0.6 km/h 8.0 km/h 75% 0.0 mm 367 W/m2
12:00 17.9 °C 13.6 °C 1015.5 hPa NW 1.6 km/h 6.4 km/h 76% 0.0 mm 265 W/m2
12:05 17.8 °C 13.7 °C 1015.5 hPa East 1.1 km/h 8.0 km/h 77% 0.0 mm 260 W/m2
12:10 17.7 °C 13.6 °C 1015.5 hPa ENE 1.8 km/h 9.7 km/h 77% 0.0 mm 341 W/m2
12:15 17.7 °C 13.2 °C 1015.5 hPa East 2.6 km/h 9.7 km/h 75% 0.0 mm 394 W/m2
12:20 17.9 °C 13.4 °C 1015.5 hPa East 0.6 km/h 4.8 km/h 75% 0.0 mm 373 W/m2
12:25 18.0 °C 13.7 °C 1015.5 hPa ENE 2.7 km/h 11.3 km/h 76% 0.0 mm 334 W/m2
12:30 18.0 °C 13.7 °C 1015.5 hPa ENE 2.7 km/h 11.3 km/h 76% 0.0 mm 334 W/m2
12:35 18.3 °C 14.2 °C 1015.1 hPa East 0.3 km/h 3.2 km/h 77% 0.0 mm 403 W/m2
12:40 18.4 °C 13.4 °C 1015.1 hPa East 0.6 km/h 6.4 km/h 73% 0.0 mm 443 W/m2
12:45 18.3 °C 13.2 °C 1015.5 hPa East 0.3 km/h 4.8 km/h 72% 0.0 mm 424 W/m2
12:50 18.2 °C 13.5 °C 1015.1 hPa East 1.1 km/h 4.8 km/h 74% 0.0 mm 410 W/m2
12:55 18.5 °C 14.0 °C 1015.1 hPa East 1.3 km/h 11.3 km/h 75% 0.0 mm 779 W/m2
13:00 18.9 °C 14.2 °C 1015.1 hPa East 1.6 km/h 8.0 km/h 74% 0.0 mm 761 W/m2
13:05 18.7 °C 13.6 °C 1015.1 hPa East 2.3 km/h 12.9 km/h 72% 0.0 mm 714 W/m2
13:10 18.7 °C 13.6 °C 1014.8 hPa East 1.8 km/h 9.7 km/h 72% 0.0 mm 684 W/m2
13:15 18.8 °C 13.7 °C 1014.8 hPa ESE 1.0 km/h 9.7 km/h 72% 0.0 mm 550 W/m2
13:20 18.7 °C 13.6 °C 1014.8 hPa ESE 0.6 km/h 8.0 km/h 72% 0.0 mm 652 W/m2
13:25 18.9 °C 13.7 °C 1014.8 hPa East 1.3 km/h 9.7 km/h 72% 0.0 mm 526 W/m2
13:30 18.9 °C 13.3 °C 1014.8 hPa ENE 1.4 km/h 11.3 km/h 70% 0.0 mm 573 W/m2
13:35 19.1 °C 14.2 °C 1014.8 hPa East 1.3 km/h 4.8 km/h 73% 0.0 mm 538 W/m2
13:40 19.1 °C 13.7 °C 1014.4 hPa East 1.1 km/h 11.3 km/h 71% 0.0 mm 431 W/m2
13:45 18.8 °C 13.4 °C 1014.4 hPa East 1.9 km/h 11.3 km/h 71% 0.0 mm 243 W/m2
13:50 18.9 °C 13.5 °C 1014.4 hPa NE 1.1 km/h 6.4 km/h 71% 0.0 mm 729 W/m2
13:55 19.3 °C 13.4 °C 1014.4 hPa ENE 1.8 km/h 8.0 km/h 69% 0.0 mm 786 W/m2
14:00 19.1 °C 13.5 °C 1014.4 hPa ENE 0.3 km/h 4.8 km/h 70% 0.0 mm 540 W/m2
14:05 19.2 °C 13.6 °C 1014.4 hPa East 1.0 km/h 8.0 km/h 70% 0.0 mm 668 W/m2
14:10 19.3 °C 13.2 °C 1014.4 hPa East 3.5 km/h 11.3 km/h 68% 0.0 mm 301 W/m2
14:15 19.1 °C 13.3 °C 1014.1 hPa East 1.6 km/h 9.7 km/h 69% 0.0 mm 450 W/m2
14:20 19.3 °C 13.7 °C 1014.4 hPa East 1.8 km/h 11.3 km/h 70% 0.0 mm 615 W/m2
14:25 19.2 °C 12.9 °C 1014.1 hPa ESE 0.6 km/h 11.3 km/h 67% 0.0 mm 613 W/m2
14:30 19.2 °C 12.9 °C 1014.1 hPa ESE 0.6 km/h 11.3 km/h 67% 0.0 mm 613 W/m2
14:40 19.4 °C 12.9 °C 1014.4 hPa East 1.6 km/h 9.7 km/h 66% 0.0 mm 380 W/m2
14:45 19.4 °C 13.1 °C 1014.4 hPa East 0.8 km/h 8.0 km/h 67% 0.0 mm 425 W/m2
14:50 19.6 °C 13.3 °C 1014.4 hPa East 0.2 km/h 3.2 km/h 67% 0.0 mm 387 W/m2
14:55 19.4 °C 13.1 °C 1014.4 hPa East 0.3 km/h 4.8 km/h 67% 0.0 mm 394 W/m2
15:00 19.7 °C 13.2 °C 1014.4 hPa East 0.3 km/h 3.2 km/h 66% 0.0 mm 343 W/m2
15:05 19.5 °C 13.0 °C 1014.1 hPa Calm   1.6 km/h 66% 0.0 mm 308 W/m2
15:10 19.5 °C 13.2 °C 1014.1 hPa NNW 1.3 km/h 6.4 km/h 67% 0.0 mm 311 W/m2
15:15 19.4 °C 13.1 °C 1014.1 hPa North 0.3 km/h 4.8 km/h 67% 0.0 mm 288 W/m2
15:20 19.3 °C 12.8 °C 1014.1 hPa East 1.1 km/h 9.7 km/h 66% 0.0 mm 269 W/m2
15:25 19.4 °C 13.1 °C 1014.1 hPa East 0.3 km/h 4.8 km/h 67% 0.0 mm 250 W/m2
15:30 19.3 °C 12.3 °C 1014.1 hPa East 2.3 km/h 8.0 km/h 64% 0.0 mm 257 W/m2
15:35 19.3 °C 13.0 °C 1014.1 hPa East 0.2 km/h 3.2 km/h 67% 0.0 mm 265 W/m2
15:40 19.3 °C 12.3 °C 1014.1 hPa East 0.2 km/h 3.2 km/h 64% 0.0 mm 267 W/m2
15:45 19.4 °C 13.1 °C 1014.1 hPa East 1.0 km/h 8.0 km/h 67% 0.0 mm 290 W/m2
15:50 19.3 °C 12.8 °C 1014.1 hPa East 0.2 km/h 3.2 km/h 66% 0.0 mm 281 W/m2
15:55 19.4 °C 13.1 °C 1014.1 hPa East 0.3 km/h 4.8 km/h 67% 0.0 mm 251 W/m2
16:00 19.4 °C 13.3 °C 1014.1 hPa East 0.2 km/h 1.6 km/h 68% 0.0 mm 241 W/m2
16:10 19.6 °C 13.3 °C 1014.1 hPa Calm     67% 0.0 mm 288 W/m2
16:15 19.6 °C 13.3 °C 1014.1 hPa Calm     67% 0.0 mm 288 W/m2
16:20 19.6 °C 13.1 °C 1014.1 hPa East 0.2 km/h 3.2 km/h 66% 0.0 mm 279 W/m2
16:25 19.6 °C 12.8 °C 1014.1 hPa East 0.2 km/h 1.6 km/h 65% 0.0 mm 292 W/m2
16:30 19.6 °C 12.8 °C 1014.1 hPa East 0.2 km/h 1.6 km/h 65% 0.0 mm 292 W/m2
16:35 19.6 °C 12.8 °C 1014.1 hPa East 1.1 km/h 9.7 km/h 65% 0.0 mm 234 W/m2
16:40 19.4 °C 12.7 °C 1014.1 hPa East 0.5 km/h 4.8 km/h 65% 0.0 mm 200 W/m2
16:45 19.4 °C 12.9 °C 1014.1 hPa East 0.3 km/h 4.8 km/h 66% 0.0 mm 246 W/m2
16:50 19.4 °C 12.4 °C 1014.1 hPa East 0.3 km/h 4.8 km/h 64% 0.0 mm 195 W/m2
16:55 19.4 °C 12.7 °C 1014.1 hPa NNE 0.3 km/h 3.2 km/h 65% 0.0 mm 178 W/m2
17:00 19.4 °C 12.4 °C 1014.1 hPa East 0.6 km/h 8.0 km/h 64% 0.0 mm 151 W/m2
17:05 19.4 °C 12.4 °C 1014.1 hPa Calm   1.6 km/h 64% 0.0 mm 188 W/m2
17:10 19.4 °C 12.4 °C 1014.1 hPa East 0.3 km/h 4.8 km/h 64% 0.0 mm 155 W/m2
17:15 19.4 °C 12.4 °C 1014.1 hPa East 0.2 km/h 1.6 km/h 64% 0.0 mm 141 W/m2
17:20 19.3 °C 12.3 °C 1014.1 hPa East 0.6 km/h 4.8 km/h 64% 0.0 mm 139 W/m2
17:25 19.3 °C 12.3 °C 1013.8 hPa East 1.1 km/h 8.0 km/h 64% 0.0 mm 209 W/m2
17:30 19.4 °C 12.7 °C 1013.8 hPa East 0.6 km/h 4.8 km/h 65% 0.0 mm 172 W/m2
17:35 19.5 °C 12.7 °C 1013.8 hPa NE 0.2 km/h 3.2 km/h 65% 0.0 mm 149 W/m2
17:40 19.4 °C 13.1 °C 1013.8 hPa East 0.8 km/h 11.3 km/h 67% 0.0 mm 114 W/m2
17:45 19.4 °C 13.1 °C 1013.8 hPa East 0.5 km/h 8.0 km/h 67% 0.0 mm 95 W/m2
17:50 19.3 °C 12.8 °C 1014.1 hPa East 0.8 km/h 8.0 km/h 66% 0.0 mm 76 W/m2
17:55 19.1 °C 12.8 °C 1014.1 hPa East 0.3 km/h 3.2 km/h 67% 0.0 mm 69 W/m2
18:00 18.9 °C 13.1 °C 1014.1 hPa East 0.2 km/h 3.2 km/h 69% 0.0 mm 74 W/m2
18:05 18.8 °C 12.8 °C 1014.1 hPa East 0.2 km/h 3.2 km/h 68% 0.0 mm 81 W/m2
18:10 18.8 °C 13.0 °C 1014.1 hPa East 0.3 km/h 8.0 km/h 69% 0.0 mm 97 W/m2
18:15 18.9 °C 13.3 °C 1014.1 hPa Calm     70% 0.0 mm 127 W/m2
18:20 19.1 °C 13.1 °C 1014.1 hPa East 0.5 km/h 8.0 km/h 68% 0.0 mm 118 W/m2
18:25 19.1 °C 13.1 °C 1014.1 hPa East 0.3 km/h 3.2 km/h 68% 0.0 mm 127 W/m2
18:30 19.1 °C 13.1 °C 1014.1 hPa East 0.3 km/h 3.2 km/h 68% 0.0 mm 127 W/m2
18:35 19.2 °C 12.7 °C 1014.1 hPa East 1.1 km/h 8.0 km/h 66% 0.0 mm 95 W/m2
18:40 19.1 °C 13.1 °C 1014.1 hPa East 0.5 km/h 3.2 km/h 68% 0.0 mm 90 W/m2
18:45 18.9 °C 12.6 °C 1013.8 hPa East 1.0 km/h 8.0 km/h 67% 0.0 mm 76 W/m2
18:50 18.8 °C 13.2 °C 1014.1 hPa Calm     70% 0.0 mm 86 W/m2
18:55 18.6 °C 13.2 °C 1013.8 hPa Calm     71% 0.0 mm 47 W/m2
19:00 18.3 °C 13.2 °C 1013.8 hPa Calm     72% 0.0 mm 39 W/m2
19:05 18.1 °C 13.2 °C 1013.8 hPa Calm     73% 0.0 mm 37 W/m2
19:10 18.0 °C 13.1 °C 1014.1 hPa Calm   1.6 km/h 73% 0.0 mm 35 W/m2
19:15 17.9 °C 13.2 °C 1013.8 hPa Calm     74% 0.0 mm 30 W/m2
19:20 17.9 °C 13.2 °C 1013.8 hPa Calm     74% 0.0 mm 28 W/m2
19:25 17.8 °C 13.1 °C 1014.1 hPa Calm     74% 0.0 mm 23 W/m2
19:30 17.8 °C 13.1 °C 1013.8 hPa Calm     74% 0.0 mm 18 W/m2
19:40 17.9 °C 13.2 °C 1013.8 hPa Calm     74% 0.0 mm 14 W/m2
19:45 17.9 °C 13.2 °C 1014.1 hPa Calm     74% 0.0 mm 16 W/m2
19:50 17.9 °C 13.0 °C 1013.8 hPa Calm     73% 0.0 mm 9 W/m2
19:55 17.8 °C 12.9 °C 1013.8 hPa Calm     73% 0.0 mm 7 W/m2
20:00 17.8 °C 12.9 °C 1013.8 hPa Calm     73% 0.0 mm 5 W/m2
20:05 17.7 °C 12.8 °C 1013.8 hPa Calm     73% 0.0 mm 0 W/m2
20:10 17.7 °C 12.8 °C 1014.1 hPa Calm     73% 0.0 mm 0 W/m2
20:15 17.6 °C 12.9 °C 1014.1 hPa Calm     74% 0.0 mm 0 W/m2
20:20 17.5 °C 12.8 °C 1014.1 hPa Calm     74% 0.0 mm 0 W/m2
20:25 17.4 °C 12.7 °C 1014.1 hPa Calm     74% 0.0 mm 0 W/m2
20:30 17.3 °C 12.8 °C 1014.1 hPa Calm     75% 0.0 mm 0 W/m2
20:35 17.2 °C 12.9 °C 1014.1 hPa Calm     76% 0.0 mm 0 W/m2
20:40 17.2 °C 12.9 °C 1014.1 hPa Calm     76% 0.0 mm 0 W/m2
20:45 17.1 °C 12.8 °C 1014.1 hPa Calm     76% 0.0 mm 0 W/m2
20:50 16.9 °C 12.8 °C 1014.1 hPa Calm     77% 0.0 mm 0 W/m2
Tägerwilen, Thurgau, Switzerland
Compliments of Weather Underground